Terminal Aerodrome Forecast
Issued by NWS Sterling, VA

Current Version | Previous Version | Graphics & Text | Print | Product List | Glossary On
Versions: 1 2 3 4 5 6 7 8 9 10 11 12 13
213
FTUS41 KLWX 212323 AAA
TAFMRB
TAF AMD
KMRB 212323Z 2123/2218 VRB03KT P6SM BKN200
     FM220900 VRB03KT P6SM OVC070=

USA.gov is the U.S. government's official web portal to all federal, state and local government web resources and services.